CheckWX is a tool to help pilots better visualize weather data.  It is not intended as a substitute for an official pre-flight weather briefing.

23:21:31 UTC

VELR METAR
North Lakhimpur Airport
Lilabari, India
Current

8 hours ago

VELR 301500Z 30002KT 3500 BR FEW025 23/18 Q1011
Observed
Mar-30 @ 15:00 UTC
Wind
  • 300° at 2 KTS
Visibility
3492 meters
Flight Rules
IFR
Conditions
Mist
Cloud Levels
  • Few at 2,500' AGL
Temperature
23°C / 73°F
Dewpoint
18°C / 64°F
Humidity
74%
Altimeter
29.85" Hg
Pressure
1010.92 hPa
Previous

10 hours ago

VELR 301300Z 07006KT 4000 HZ FEW025 27/16 Q1009
Observed
Mar-30 @ 13:00 UTC
Wind
  • 070° at 6 KTS
Visibility
4007 meters
Flight Rules
IFR
Conditions
Haze
Cloud Levels
  • Few at 2,500' AGL
Temperature
27°C / 81°F
Dewpoint
16°C / 61°F
Humidity
51%
Altimeter
29.79" Hg
Pressure
1008.92 hPa
Previous

11 hours ago

VELR 301200Z 02008KT 4000 HZ FEW025 27/16 Q1007
Observed
Mar-30 @ 12:00 UTC
Wind
  • 020° at 8 KTS
Visibility
4007 meters
Flight Rules
IFR
Conditions
Haze
Cloud Levels
  • Few at 2,500' AGL
Temperature
27°C / 81°F
Dewpoint
16°C / 61°F
Humidity
51%
Altimeter
29.73" Hg
Pressure
1006.92 hPa